createdAt,value
2019-02-15T00:01:03.833Z,88.67
2019-02-15T00:03:32.926Z,87.79
2019-02-15T00:06:02.286Z,88.74
2019-02-15T00:08:34.789Z,88.08
2019-02-15T00:11:04.001Z,89.17
2019-02-15T00:13:33.191Z,88.31
2019-02-15T00:16:04.542Z,89.52
2019-02-15T00:18:47.135Z,89.48
2019-02-15T00:21:18.571Z,90.12
2019-02-15T00:23:47.734Z,89.68
2019-02-15T00:26:16.959Z,89.61
2019-02-15T00:28:46.521Z,88.97
2019-02-15T00:31:18.641Z,89.21
2019-02-15T00:33:47.974Z,89.14
2019-02-15T00:36:17.468Z,88.70
2019-02-15T00:38:49.517Z,88.49
2019-02-15T00:41:18.662Z,88.67
2019-02-15T00:43:47.790Z,88.75
2019-02-15T00:46:35.558Z,89.16
2019-02-15T00:49:06.549Z,89.33
2019-02-15T00:51:59.032Z,89.11
2019-02-15T00:54:33.641Z,89.13
2019-02-15T00:57:30.908Z,89.19
2019-02-15T01:00:24.842Z,88.81
2019-02-15T01:03:22.198Z,88.38
2019-02-15T01:06:03.539Z,89.34
2019-02-15T01:08:48.661Z,89.85
2019-02-15T01:11:25.001Z,90.44
2019-02-15T01:13:54.370Z,89.63
2019-02-15T01:16:25.807Z,89.44
2019-02-15T01:18:55.610Z,89.31
2019-02-15T01:21:25.142Z,89.43
2019-02-15T01:23:54.246Z,90.21
2019-02-15T01:26:51.039Z,88.76
2019-02-15T01:29:39.671Z,89.21
2019-02-15T01:32:45.539Z,89.60
2019-02-15T01:35:45.960Z,89.75
2019-02-15T01:38:43.574Z,89.60
2019-02-15T01:41:33.413Z,89.28
2019-02-15T01:44:12.704Z,88.94
2019-02-15T01:46:48.367Z,89.35
2019-02-15T01:49:17.908Z,89.45
2019-02-15T01:51:47.060Z,88.99
2019-02-15T01:54:17.611Z,88.75
2019-02-15T01:56:46.707Z,89.00
2019-02-15T01:59:16.431Z,88.40
2019-02-15T02:01:45.599Z,88.07
2019-02-15T02:04:14.736Z,87.87
2019-02-15T02:06:43.841Z,87.88
2019-02-15T02:09:12.962Z,88.53
2019-02-15T02:11:42.201Z,88.44
2019-02-15T02:14:11.290Z,88.83
2019-02-15T02:16:40.400Z,88.89
2019-02-15T02:19:09.468Z,88.72
2019-02-15T02:21:38.585Z,88.41
2019-02-15T02:24:07.664Z,88.49
2019-02-15T02:26:36.737Z,88.81
2019-02-15T02:29:05.843Z,89.21
2019-02-15T02:31:36.510Z,89.00
2019-02-15T02:34:05.594Z,88.85
2019-02-15T02:36:51.445Z,89.03
2019-02-15T02:39:20.586Z,89.02
2019-02-15T02:41:49.714Z,88.48
2019-02-15T02:44:18.758Z,88.26
2019-02-15T02:46:47.843Z,88.41
2019-02-15T02:49:19.138Z,88.43
2019-02-15T02:51:48.285Z,88.36
2019-02-15T02:54:17.371Z,88.40
2019-02-15T02:56:46.486Z,88.78
2019-02-15T02:59:15.600Z,89.15
2019-02-15T03:01:44.726Z,88.92
2019-02-15T03:04:13.856Z,88.19
2019-02-15T03:06:44.971Z,88.46
2019-02-15T03:09:15.553Z,88.32
2019-02-15T03:11:46.621Z,88.19
2019-02-15T03:14:18.193Z,88.11
2019-02-15T03:16:49.518Z,87.71
2019-02-15T03:19:20.561Z,88.39
2019-02-15T03:21:49.847Z,87.49
2019-02-15T03:24:19.019Z,87.50
2019-02-15T03:26:48.092Z,87.26
2019-02-15T03:29:17.354Z,87.45
2019-02-15T03:31:46.522Z,87.33
2019-02-15T03:34:15.623Z,87.84
2019-02-15T03:37:09.542Z,88.09
2019-02-15T03:39:46.949Z,87.66
2019-02-15T03:42:16.123Z,88.36
2019-02-15T03:44:45.354Z,88.17
2019-02-15T03:47:20.525Z,87.60
2019-02-15T03:49:51.110Z,88.25
2019-02-15T03:52:20.243Z,87.62
2019-02-15T03:54:49.331Z,88.19
2019-02-15T03:57:18.463Z,87.86
2019-02-15T03:59:47.543Z,87.72
2019-02-15T04:02:16.586Z,87.39
2019-02-15T04:04:45.670Z,88.41
2019-02-15T04:07:14.789Z,88.21
2019-02-15T04:09:43.890Z,87.47
2019-02-15T04:12:13.010Z,87.84
2019-02-15T04:14:42.098Z,87.66
2019-02-15T04:17:11.255Z,86.20
2019-02-15T04:19:42.140Z,87.71
2019-02-15T04:22:11.358Z,88.45
2019-02-15T04:24:40.457Z,87.93
2019-02-15T04:27:09.605Z,89.04
2019-02-15T04:29:38.730Z,89.45
2019-02-15T04:32:07.796Z,89.10
2019-02-15T04:34:36.902Z,89.46
2019-02-15T04:37:06.020Z,89.19
2019-02-15T04:39:35.121Z,88.62
2019-02-15T04:42:04.223Z,88.46
2019-02-15T04:44:42.354Z,87.76
2019-02-15T04:47:04.154Z,87.58
2019-02-15T04:49:34.529Z,87.68
2019-02-15T04:52:03.688Z,87.21
2019-02-15T04:54:32.795Z,87.47
2019-02-15T04:57:01.920Z,87.68
2019-02-15T04:59:33.250Z,87.91
2019-02-15T05:02:02.471Z,88.40
2019-02-15T05:04:31.627Z,88.46
2019-02-15T05:07:00.760Z,87.98
2019-02-15T05:09:32.226Z,88.05
2019-02-15T05:12:01.331Z,87.61
2019-02-15T05:14:30.667Z,87.17
2019-02-15T05:16:59.732Z,87.47
2019-02-15T05:19:28.880Z,87.11
2019-02-15T05:21:58.130Z,87.91
2019-02-15T05:24:27.318Z,87.59
2019-02-15T05:26:56.407Z,88.02
2019-02-15T05:29:25.666Z,88.45
2019-02-15T05:31:54.739Z,88.02
2019-02-15T05:34:23.924Z,88.72
2019-02-15T05:36:53.067Z,88.46
2019-02-15T05:39:22.194Z,88.56
2019-02-15T05:41:51.307Z,87.93
2019-02-15T05:44:20.427Z,87.94
2019-02-15T05:46:49.525Z,88.05
2019-02-15T05:49:18.736Z,87.86
2019-02-15T05:51:47.954Z,87.50
2019-02-15T05:54:17.274Z,87.54
2019-02-15T05:56:46.428Z,87.42
2019-02-15T05:59:15.555Z,87.60
2019-02-15T06:01:44.710Z,87.36
2019-02-15T06:04:13.815Z,87.60
2019-02-15T06:06:42.915Z,87.17
2019-02-15T06:09:12.045Z,87.15
2019-02-15T06:11:41.299Z,87.37
2019-02-15T06:14:11.479Z,87.04
2019-02-15T06:16:40.556Z,87.09
2019-02-15T06:19:09.645Z,87.86
2019-02-15T06:21:38.773Z,87.79
2019-02-15T06:24:07.883Z,87.29
2019-02-15T06:26:36.947Z,87.01
2019-02-15T06:29:06.079Z,87.41
2019-02-15T06:31:35.521Z,86.86
2019-02-15T06:34:05.527Z,87.51
2019-02-15T06:36:36.885Z,87.87
2019-02-15T06:39:08.560Z,88.17
2019-02-15T06:41:37.721Z,88.27
2019-02-15T06:44:09.753Z,88.46
2019-02-15T06:46:38.840Z,87.66
2019-02-15T06:49:09.325Z,87.17
2019-02-15T06:51:38.485Z,87.58
2019-02-15T06:54:07.586Z,86.99
2019-02-15T06:56:36.682Z,87.35
2019-02-15T06:59:30.819Z,87.71
2019-02-15T07:02:22.870Z,87.54
2019-02-15T07:05:07.095Z,87.37
2019-02-15T07:07:36.343Z,86.79
2019-02-15T07:10:05.848Z,87.50
2019-02-15T07:12:34.925Z,87.51
2019-02-15T07:15:04.341Z,87.58
2019-02-15T07:17:35.269Z,87.55
2019-02-15T07:20:04.379Z,87.68
2019-02-15T07:22:33.550Z,87.59
2019-02-15T07:25:02.660Z,87.86
2019-02-15T07:27:33.999Z,87.41
2019-02-15T07:30:03.091Z,88.31
2019-02-15T07:32:32.227Z,89.42
2019-02-15T07:35:01.283Z,89.10
2019-02-15T07:37:30.408Z,90.11
2019-02-15T07:39:59.460Z,91.15
2019-02-15T07:42:28.545Z,90.63
2019-02-15T07:44:57.611Z,90.66
2019-02-15T07:47:26.734Z,91.38
2019-02-15T07:49:55.820Z,89.97
2019-02-15T07:52:25.002Z,89.91
2019-02-15T07:54:54.045Z,91.64
2019-02-15T07:57:23.229Z,90.88
2019-02-15T07:59:52.341Z,90.84
2019-02-15T08:02:21.475Z,90.87
2019-02-15T08:04:50.544Z,90.75
2019-02-15T08:07:19.682Z,89.08
2019-02-15T08:09:48.732Z,90.45
2019-02-15T08:12:18.304Z,89.37
2019-02-15T08:14:48.093Z,89.80
2019-02-15T08:17:17.801Z,86.99
2019-02-15T08:19:48.332Z,87.21
2019-02-15T08:22:17.966Z,86.85
2019-02-15T08:24:47.744Z,84.15
2019-02-15T08:27:17.645Z,82.94
2019-02-15T08:29:47.750Z,79.58
2019-02-15T08:32:16.950Z,82.05
2019-02-15T08:34:48.365Z,81.35
2019-02-15T08:37:19.559Z,82.07
2019-02-15T08:39:49.077Z,83.67
2019-02-15T08:42:22.213Z,81.55
2019-02-15T08:44:51.422Z,80.90
2019-02-15T08:47:20.530Z,80.13
2019-02-15T08:49:50.122Z,81.16
2019-02-15T08:52:20.539Z,81.08
2019-02-15T08:54:49.890Z,78.71
2019-02-15T08:57:19.246Z,79.25
2019-02-15T08:59:50.667Z,77.52
2019-02-15T09:02:25.989Z,78.89
2019-02-15T09:04:55.074Z,78.63
2019-02-15T09:07:24.152Z,77.04
2019-02-15T09:09:55.639Z,78.60
2019-02-15T09:12:26.401Z,77.55
2019-02-15T09:14:55.893Z,74.53
2019-02-15T09:17:27.380Z,75.46
2019-02-15T09:19:58.550Z,77.25
2019-02-15T09:22:28.683Z,75.97
2019-02-15T09:24:59.008Z,75.06
2019-02-15T09:27:35.789Z,75.83
2019-02-15T09:30:05.757Z,75.63
2019-02-15T09:32:36.024Z,74.83
2019-02-15T09:35:05.527Z,75.16
2019-02-15T09:37:34.757Z,73.60
2019-02-15T09:40:03.858Z,72.93
2019-02-15T09:42:35.299Z,73.45
2019-02-15T09:45:04.556Z,73.06
2019-02-15T09:47:33.664Z,69.92
2019-02-15T09:50:05.014Z,71.88
2019-02-15T09:52:35.408Z,72.18
2019-02-15T09:55:04.533Z,72.22
2019-02-15T09:57:33.672Z,70.19
2019-02-15T10:00:04.825Z,69.01
2019-02-15T10:02:33.984Z,69.62
2019-02-15T10:05:03.115Z,67.96
2019-02-15T10:07:32.332Z,68.66
2019-02-15T10:10:01.457Z,68.55
2019-02-15T10:12:30.597Z,66.58
2019-02-15T10:15:01.245Z,66.14
2019-02-15T10:17:30.278Z,65.44
2019-02-15T10:20:00.944Z,64.95
2019-02-15T10:22:30.124Z,62.76
2019-02-15T10:25:01.506Z,64.08
2019-02-15T10:27:31.776Z,63.44
2019-02-15T10:30:02.585Z,60.95
2019-02-15T10:32:33.078Z,61.36
2019-02-15T10:35:02.237Z,58.61
2019-02-15T10:37:31.363Z,57.04
2019-02-15T10:40:00.441Z,57.32
2019-02-15T10:42:29.724Z,59.72
2019-02-15T10:45:01.112Z,58.54
2019-02-15T10:47:34.079Z,57.77
2019-02-15T10:50:05.117Z,58.53
2019-02-15T10:52:36.441Z,55.05
2019-02-15T10:55:06.063Z,55.95
2019-02-15T10:57:35.179Z,55.59
2019-02-15T11:00:04.335Z,54.59
2019-02-15T11:02:33.448Z,51.88
2019-02-15T11:05:02.524Z,52.82
2019-02-15T11:07:31.677Z,53.04
2019-02-15T11:10:00.790Z,50.77
2019-02-15T11:12:29.966Z,51.84
2019-02-15T11:14:59.048Z,51.98
2019-02-15T11:17:28.230Z,50.88
2019-02-15T11:20:01.712Z,53.32
2019-02-15T11:22:31.784Z,50.37
2019-02-15T11:25:00.858Z,51.61
2019-02-15T11:27:31.856Z,53.59
2019-02-15T11:30:00.986Z,53.32
2019-02-15T11:32:30.861Z,53.07
2019-02-15T11:35:01.209Z,50.72
2019-02-15T11:37:30.379Z,50.57
2019-02-15T11:39:59.454Z,49.21
2019-02-15T11:42:28.617Z,51.55
2019-02-15T11:44:57.756Z,49.62
2019-02-15T11:47:26.849Z,49.63
2019-02-15T11:49:55.948Z,46.92
2019-02-15T11:52:25.097Z,49.07
2019-02-15T11:54:54.180Z,46.89
2019-02-15T11:57:23.271Z,49.94
2019-02-15T11:59:52.350Z,48.36
2019-02-15T12:02:22.062Z,46.38
2019-02-15T12:04:51.197Z,44.13
2019-02-15T12:07:21.914Z,47.56
2019-02-15T12:09:51.059Z,47.29
2019-02-15T12:12:20.328Z,47.06
2019-02-15T12:14:49.431Z,46.68
2019-02-15T12:17:20.591Z,47.03
2019-02-15T12:19:49.742Z,45.03
2019-02-15T12:22:18.889Z,44.08
2019-02-15T12:24:48.116Z,45.52
2019-02-15T12:27:17.185Z,46.29
2019-02-15T12:29:46.738Z,47.29
2019-02-15T12:32:15.859Z,47.92
2019-02-15T12:34:44.971Z,46.81
2019-02-15T12:37:14.180Z,46.91
2019-02-15T12:39:46.658Z,45.55
2019-02-15T12:42:15.750Z,44.87
2019-02-15T12:44:44.959Z,47.04
2019-02-15T12:47:15.273Z,46.56
2019-02-15T12:49:45.106Z,46.82
2019-02-15T12:52:15.242Z,43.94
2019-02-15T12:54:48.341Z,44.50
2019-02-15T12:57:17.849Z,42.90
2019-02-15T12:59:46.940Z,44.03
2019-02-15T13:02:17.950Z,44.08
2019-02-15T13:04:48.061Z,43.03
2019-02-15T13:07:17.602Z,42.23
2019-02-15T13:09:46.708Z,41.65
2019-02-15T13:12:16.406Z,42.96
2019-02-15T13:14:46.654Z,43.92
2019-02-15T13:17:24.463Z,44.52
2019-02-15T13:19:47.027Z,44.33
2019-02-15T13:22:16.065Z,42.03
2019-02-15T13:24:45.785Z,43.68
2019-02-15T13:27:16.955Z,44.71
2019-02-15T13:29:46.093Z,43.48
2019-02-15T13:32:15.641Z,43.77
2019-02-15T13:34:48.296Z,42.78
2019-02-15T13:37:17.663Z,41.87
2019-02-15T13:39:49.907Z,45.43
2019-02-15T13:42:21.664Z,43.92
2019-02-15T13:44:53.138Z,43.39
2019-02-15T13:47:22.321Z,42.72
2019-02-15T13:49:53.179Z,42.82
2019-02-15T13:52:22.888Z,42.70
2019-02-15T13:54:54.831Z,43.34
2019-02-15T13:57:24.533Z,43.70
2019-02-15T13:59:57.686Z,43.46
2019-02-15T14:02:26.748Z,43.46
2019-02-15T14:04:56.000Z,43.99
2019-02-15T14:07:26.737Z,43.85
2019-02-15T14:09:57.494Z,43.21
2019-02-15T14:12:28.919Z,43.89
2019-02-15T14:14:58.071Z,44.27
2019-02-15T14:17:27.457Z,43.48
2019-02-15T14:19:59.748Z,43.51
2019-02-15T14:22:29.127Z,43.89
2019-02-15T14:25:00.623Z,43.17
2019-02-15T14:27:29.824Z,42.43
2019-02-15T14:30:00.385Z,42.50
2019-02-15T14:32:30.170Z,42.79
2019-02-15T14:34:59.280Z,42.82
2019-02-15T14:37:28.404Z,44.25
2019-02-15T14:39:57.500Z,44.43
2019-02-15T14:42:26.638Z,43.50
2019-02-15T14:44:55.698Z,44.14
2019-02-15T14:47:24.811Z,43.60
2019-02-15T14:49:55.091Z,44.67
2019-02-15T14:52:27.865Z,44.94
2019-02-15T14:54:58.473Z,45.32
2019-02-15T14:57:27.679Z,44.80
2019-02-15T14:59:56.791Z,43.92
2019-02-15T15:02:25.942Z,42.91
2019-02-15T15:04:55.059Z,44.73
2019-02-15T15:07:24.229Z,45.82
2019-02-15T15:09:53.299Z,46.29
2019-02-15T15:12:24.361Z,46.29
2019-02-15T15:14:55.254Z,46.56
2019-02-15T15:17:24.364Z,47.33
2019-02-15T15:19:53.493Z,47.42
2019-02-15T15:22:22.661Z,46.41
2019-02-15T15:24:51.753Z,46.25
2019-02-15T15:27:20.842Z,46.94
2019-02-15T15:29:50.634Z,46.93
2019-02-15T15:32:22.121Z,46.42
2019-02-15T15:34:51.221Z,47.41
2019-02-15T15:37:20.312Z,47.80
2019-02-15T15:39:49.452Z,47.33
2019-02-15T15:42:19.657Z,47.82
2019-02-15T15:44:48.729Z,47.75
2019-02-15T15:47:17.869Z,48.42
2019-02-15T15:49:47.027Z,48.50
2019-02-15T15:52:17.629Z,48.49
2019-02-15T15:54:49.027Z,48.98
2019-02-15T15:57:18.070Z,49.40
2019-02-15T15:59:47.191Z,49.45
2019-02-15T16:02:18.404Z,50.85
2019-02-15T16:04:50.809Z,51.21
2019-02-15T16:07:21.757Z,51.16
2019-02-15T16:09:52.569Z,51.50
2019-02-15T16:12:27.510Z,51.96
2019-02-15T16:14:56.622Z,52.51
2019-02-15T16:17:29.386Z,53.10
2019-02-15T16:19:59.370Z,54.25
2019-02-15T16:22:28.607Z,54.89
2019-02-15T16:24:58.543Z,54.98
2019-02-15T16:27:31.255Z,56.39
2019-02-15T16:30:05.503Z,56.35
2019-02-15T16:32:36.906Z,56.80
2019-02-15T16:35:06.392Z,56.36
2019-02-15T16:37:37.171Z,57.58
2019-02-15T16:40:13.642Z,57.75
2019-02-15T16:42:42.873Z,58.97
2019-02-15T16:45:14.768Z,59.58
2019-02-15T16:47:43.932Z,61.69
2019-02-15T16:50:18.587Z,64.33
2019-02-15T16:52:50.855Z,65.54
2019-02-15T16:55:20.266Z,65.91
2019-02-15T16:57:49.468Z,67.38
2019-02-15T17:00:19.069Z,68.32
2019-02-15T17:02:49.350Z,69.65
2019-02-15T17:05:18.594Z,70.42
2019-02-15T17:07:48.220Z,70.73
2019-02-15T17:10:17.640Z,71.77
2019-02-15T17:12:46.703Z,72.35
2019-02-15T17:15:15.968Z,72.59
2019-02-15T17:17:45.064Z,72.91
2019-02-15T17:20:14.213Z,73.33
2019-02-15T17:22:43.273Z,73.92
2019-02-15T17:25:12.591Z,74.20
2019-02-15T17:27:43.575Z,74.89
2019-02-15T17:30:15.743Z,75.01
2019-02-15T17:32:44.820Z,75.15
2019-02-15T17:35:13.932Z,75.62
2019-02-15T17:37:44.212Z,76.26
2019-02-15T17:40:13.419Z,77.35
2019-02-15T17:42:42.503Z,77.77
2019-02-15T17:45:13.293Z,78.06
2019-02-15T17:47:44.436Z,78.08
2019-02-15T17:50:13.558Z,79.09
2019-02-15T17:52:42.726Z,79.28
2019-02-15T17:55:11.847Z,79.89
2019-02-15T17:57:42.069Z,80.56
2019-02-15T18:00:12.559Z,80.08
2019-02-15T18:02:41.739Z,79.87
2019-02-15T18:05:16.759Z,79.58
2019-02-15T18:07:48.248Z,80.55
2019-02-15T18:10:17.362Z,80.47
2019-02-15T18:12:46.501Z,80.84
2019-02-15T18:15:15.638Z,80.95
2019-02-15T18:17:44.783Z,80.63
2019-02-15T18:20:15.938Z,81.06
2019-02-15T18:22:47.394Z,81.96
2019-02-15T18:25:16.484Z,82.35
2019-02-15T18:27:47.076Z,83.10
2019-02-15T18:30:16.217Z,82.93
2019-02-15T18:32:48.646Z,82.90
2019-02-15T18:35:17.787Z,83.24
2019-02-15T18:37:53.222Z,82.87
2019-02-15T18:40:22.312Z,82.37
2019-02-15T18:42:51.412Z,82.79
2019-02-15T18:45:20.532Z,83.26
2019-02-15T18:47:50.795Z,83.85
2019-02-15T18:50:20.003Z,84.07
2019-02-15T18:52:49.196Z,83.54
2019-02-15T18:55:20.389Z,83.90
2019-02-15T18:57:49.509Z,84.51
2019-02-15T19:00:18.731Z,85.30
2019-02-15T19:02:49.146Z,85.24
2019-02-15T19:05:18.211Z,85.69
2019-02-15T19:07:47.339Z,85.94
2019-02-15T19:10:19.931Z,85.47
2019-02-15T19:12:49.065Z,85.40
2019-02-15T19:15:18.256Z,85.42
2019-02-15T19:17:49.964Z,85.35
2019-02-15T19:20:19.122Z,86.19
2019-02-15T19:22:48.301Z,86.77
2019-02-15T19:25:19.812Z,86.92
2019-02-15T19:27:50.278Z,87.45
2019-02-15T19:30:21.324Z,88.13
2019-02-15T19:32:50.504Z,88.04
2019-02-15T19:35:19.685Z,87.96
2019-02-15T19:37:48.829Z,88.33
2019-02-15T19:40:17.985Z,89.02
2019-02-15T19:42:48.741Z,86.47
2019-02-15T19:45:17.856Z,86.29
2019-02-15T19:47:47.142Z,86.65
2019-02-15T19:50:16.864Z,86.30
2019-02-15T19:52:46.592Z,87.36
2019-02-15T19:55:15.680Z,88.55
2019-02-15T19:57:45.826Z,88.41
2019-02-15T20:00:16.751Z,87.55
2019-02-15T20:02:45.867Z,88.41
2019-02-15T20:05:16.065Z,88.13
2019-02-15T20:07:46.639Z,88.70
2019-02-15T20:10:17.379Z,89.00
2019-02-15T20:12:46.472Z,89.27
2019-02-15T20:15:15.737Z,89.05
2019-02-15T20:17:44.861Z,89.08
2019-02-15T20:20:14.130Z,88.58
2019-02-15T20:22:45.576Z,88.15
2019-02-15T20:25:14.735Z,88.33
2019-02-15T20:27:43.829Z,88.50
2019-02-15T20:30:14.875Z,89.83
2019-02-15T20:32:43.915Z,89.50
2019-02-15T20:35:13.723Z,89.38
2019-02-15T20:37:44.070Z,87.62
2019-02-15T20:40:13.219Z,87.67
2019-02-15T20:42:44.567Z,87.73
2019-02-15T20:45:15.988Z,87.44
2019-02-15T20:47:46.547Z,87.01
2019-02-15T20:50:15.794Z,86.76
2019-02-15T20:52:44.859Z,86.24
2019-02-15T20:55:14.849Z,85.98
2019-02-15T20:57:44.006Z,85.97
2019-02-15T21:00:18.249Z,85.62
2019-02-15T21:02:48.936Z,86.14
2019-02-15T21:05:20.118Z,88.90
2019-02-15T21:07:50.286Z,88.01
2019-02-15T21:10:19.353Z,87.86
2019-02-15T21:12:48.494Z,87.34
2019-02-15T21:15:17.691Z,87.35
2019-02-15T21:17:47.395Z,86.93
2019-02-15T21:20:16.725Z,86.96
2019-02-15T21:22:45.904Z,87.14
2019-02-15T21:25:15.463Z,87.44
2019-02-15T21:27:44.592Z,87.87
2019-02-15T21:30:14.412Z,88.10
2019-02-15T21:32:43.578Z,87.52
2019-02-15T21:35:12.984Z,88.12
2019-02-15T21:37:42.139Z,87.45
2019-02-15T21:40:12.530Z,87.05
2019-02-15T21:42:41.758Z,86.75
2019-02-15T21:45:11.529Z,86.83
2019-02-15T21:47:42.075Z,86.51
2019-02-15T21:50:17.192Z,86.72
2019-02-15T21:52:44.279Z,87.18
2019-02-15T21:55:12.941Z,87.17
2019-02-15T21:57:42.063Z,87.06
2019-02-15T22:00:14.059Z,86.81
2019-02-15T22:02:43.160Z,86.19
2019-02-15T22:05:13.312Z,88.38
2019-02-15T22:07:43.620Z,88.64
2019-02-15T22:10:12.772Z,89.28
2019-02-15T22:12:44.002Z,89.65
2019-02-15T22:15:13.738Z,89.91
2019-02-15T22:17:45.222Z,90.48
2019-02-15T22:20:14.638Z,91.95
2019-02-15T22:22:43.953Z,91.18
2019-02-15T22:25:13.784Z,91.76
2019-02-15T22:27:42.895Z,92.81
2019-02-15T22:30:13.279Z,92.32
2019-02-15T22:32:42.754Z,90.51
2019-02-15T22:35:12.115Z,90.99
2019-02-15T22:37:41.508Z,90.15
2019-02-15T22:40:39.583Z,89.61
2019-02-15T22:43:20.427Z,89.10
2019-02-15T22:45:49.508Z,88.40
2019-02-15T22:48:21.028Z,88.43
2019-02-15T22:50:52.970Z,87.56
2019-02-15T22:53:22.713Z,88.82
2019-02-15T22:55:54.087Z,88.66
2019-02-15T22:58:24.475Z,88.74
2019-02-15T23:01:05.629Z,88.81
2019-02-15T23:03:34.750Z,88.82
2019-02-15T23:06:03.783Z,88.40
2019-02-15T23:08:38.896Z,87.84
2019-02-15T23:11:08.871Z,87.51
2019-02-15T23:13:37.988Z,87.76
2019-02-15T23:16:08.873Z,87.84
2019-02-15T23:18:38.015Z,87.89
2019-02-15T23:21:07.074Z,89.12
2019-02-15T23:23:36.303Z,89.77
2019-02-15T23:26:05.397Z,89.52
2019-02-15T23:28:36.897Z,89.95
2019-02-15T23:31:05.942Z,90.22
2019-02-15T23:33:35.072Z,89.82
2019-02-15T23:36:04.181Z,90.60
2019-02-15T23:38:33.342Z,90.36
2019-02-15T23:41:02.465Z,92.97
2019-02-15T23:43:31.637Z,93.34
2019-02-15T23:46:00.764Z,92.51
2019-02-15T23:48:35.101Z,92.50
2019-02-15T23:51:04.234Z,93.60
2019-02-15T23:53:33.472Z,93.54
2019-02-15T23:56:03.941Z,92.70
2019-02-15T23:58:35.027Z,92.15
